sensor_id;sensor_type;location;lat;lon;timestamp;pressure;altitude;pressure_sealevel;temperature;humidity
22333;BME280;11334;36.986;-121.936;2022-08-14T00:00:52;101072.50;;;34.96;29.84
22333;BME280;11334;36.986;-121.936;2022-08-14T00:03:26;101071.81;;;35.17;30.24
22333;BME280;11334;36.986;-121.936;2022-08-14T00:05:55;101076.41;;;35.22;30.19
22333;BME280;11334;36.986;-121.936;2022-08-14T00:08:22;101077.09;;;35.27;30.38
22333;BME280;11334;36.986;-121.936;2022-08-14T00:10:48;101071.28;;;35.29;30.69
22333;BME280;11334;36.986;-121.936;2022-08-14T00:13:17;101067.09;;;35.18;30.90
22333;BME280;11334;36.986;-121.936;2022-08-14T00:15:45;101068.47;;;35.42;30.51
22333;BME280;11334;36.986;-121.936;2022-08-14T00:18:15;101061.81;;;35.78;30.25
22333;BME280;11334;36.986;-121.936;2022-08-14T00:20:42;101059.25;;;35.81;30.50
22333;BME280;11334;36.986;-121.936;2022-08-14T00:23:10;101060.22;;;36.07;29.81
22333;BME280;11334;36.986;-121.936;2022-08-14T00:25:36;101058.28;;;36.29;29.47
22333;BME280;11334;36.986;-121.936;2022-08-14T00:28:04;101049.56;;;36.44;30.05
22333;BME280;11334;36.986;-121.936;2022-08-14T00:30:32;101050.59;;;36.48;29.69
22333;BME280;11334;36.986;-121.936;2022-08-14T00:32:59;101053.84;;;36.50;29.76
22333;BME280;11334;36.986;-121.936;2022-08-14T00:35:25;101044.69;;;36.71;29.42
22333;BME280;11334;36.986;-121.936;2022-08-14T00:37:51;101043.88;;;36.70;29.41
22333;BME280;11334;36.986;-121.936;2022-08-14T00:40:18;101044.06;;;36.82;28.91
22333;BME280;11334;36.986;-121.936;2022-08-14T00:42:46;101048.03;;;36.98;28.01
22333;BME280;11334;36.986;-121.936;2022-08-14T00:45:13;101050.19;;;37.26;28.37
22333;BME280;11334;36.986;-121.936;2022-08-14T00:47:41;101042.56;;;37.40;27.88
22333;BME280;11334;36.986;-121.936;2022-08-14T00:50:12;101042.56;;;37.48;27.54
22333;BME280;11334;36.986;-121.936;2022-08-14T00:52:41;101037.53;;;37.84;27.75
22333;BME280;11334;36.986;-121.936;2022-08-14T00:55:08;101043.88;;;38.01;27.62
22333;BME280;11334;36.986;-121.936;2022-08-14T00:57:36;101047.00;;;38.45;26.72
22333;BME280;11334;36.986;-121.936;2022-08-14T01:00:07;101044.28;;;38.73;26.64
22333;BME280;11334;36.986;-121.936;2022-08-14T01:02:38;101037.25;;;39.04;26.22
22333;BME280;11334;36.986;-121.936;2022-08-14T01:05:06;101040.88;;;39.25;26.25
22333;BME280;11334;36.986;-121.936;2022-08-14T01:07:32;101037.78;;;39.67;25.75
22333;BME280;11334;36.986;-121.936;2022-08-14T01:10:01;101039.72;;;39.87;25.85
22333;BME280;11334;36.986;-121.936;2022-08-14T01:12:30;101032.88;;;40.16;25.18
22333;BME280;11334;36.986;-121.936;2022-08-14T01:14:59;101033.53;;;40.57;24.91
22333;BME280;11334;36.986;-121.936;2022-08-14T01:17:28;101031.91;;;40.91;24.61
22333;BME280;11334;36.986;-121.936;2022-08-14T01:20:15;101040.81;;;41.32;24.05
22333;BME280;11334;36.986;-121.936;2022-08-14T01:22:59;101036.09;;;41.60;23.80
22333;BME280;11334;36.986;-121.936;2022-08-14T01:25:26;101030.06;;;41.85;23.46
22333;BME280;11334;36.986;-121.936;2022-08-14T01:27:52;101028.78;;;42.10;22.87
22333;BME280;11334;36.986;-121.936;2022-08-14T01:30:20;101027.03;;;42.32;23.55
22333;BME280;11334;36.986;-121.936;2022-08-14T01:32:48;101029.28;;;42.57;23.43
22333;BME280;11334;36.986;-121.936;2022-08-14T01:35:16;101021.94;;;42.80;23.26
22333;BME280;11334;36.986;-121.936;2022-08-14T01:37:46;101035.03;;;42.64;22.50
22333;BME280;11334;36.986;-121.936;2022-08-14T01:40:13;101031.34;;;42.91;22.36
22333;BME280;11334;36.986;-121.936;2022-08-14T01:42:43;101028.44;;;43.03;22.99
22333;BME280;11334;36.986;-121.936;2022-08-14T01:45:10;101031.34;;;42.91;22.34
22333;BME280;11334;36.986;-121.936;2022-08-14T01:47:39;101029.53;;;42.98;23.11
22333;BME280;11334;36.986;-121.936;2022-08-14T01:50:07;101033.09;;;42.80;22.71
22333;BME280;11334;36.986;-121.936;2022-08-14T01:52:36;101029.34;;;42.91;22.98
22333;BME280;11334;36.986;-121.936;2022-08-14T01:55:06;101032.47;;;42.71;23.16
22333;BME280;11334;36.986;-121.936;2022-08-14T01:57:35;101035.13;;;42.52;22.94
22333;BME280;11334;36.986;-121.936;2022-08-14T02:00:05;101034.72;;;42.08;24.09
22333;BME280;11334;36.986;-121.936;2022-08-14T02:02:34;101039.63;;;41.33;24.74
22333;BME280;11334;36.986;-121.936;2022-08-14T02:05:01;101039.38;;;40.32;25.33
22333;BME280;11334;36.986;-121.936;2022-08-14T02:07:27;101039.00;;;39.09;27.31
22333;BME280;11334;36.986;-121.936;2022-08-14T02:09:57;101047.09;;;38.03;27.39
22333;BME280;11334;36.986;-121.936;2022-08-14T02:12:23;101047.38;;;37.01;28.57
22333;BME280;11334;36.986;-121.936;2022-08-14T02:14:49;101051.78;;;36.03;30.12
22333;BME280;11334;36.986;-121.936;2022-08-14T02:17:16;101055.09;;;34.87;31.93
22333;BME280;11334;36.986;-121.936;2022-08-14T02:19:48;101060.25;;;34.17;33.04
22333;BME280;11334;36.986;-121.936;2022-08-14T02:22:15;101055.66;;;33.32;34.30
22333;BME280;11334;36.986;-121.936;2022-08-14T02:24:44;101047.88;;;32.74;35.02
22333;BME280;11334;36.986;-121.936;2022-08-14T02:27:11;101047.78;;;32.05;36.23
22333;BME280;11334;36.986;-121.936;2022-08-14T02:29:37;101053.66;;;31.55;37.22
22333;BME280;11334;36.986;-121.936;2022-08-14T02:32:05;101058.84;;;31.14;37.54
22333;BME280;11334;36.986;-121.936;2022-08-14T02:34:34;101058.00;;;30.51;39.19
22333;BME280;11334;36.986;-121.936;2022-08-14T02:37:09;101071.47;;;30.18;39.48
22333;BME280;11334;36.986;-121.936;2022-08-14T02:39:42;101062.16;;;29.75;40.55
22333;BME280;11334;36.986;-121.936;2022-08-14T02:42:10;101061.28;;;29.40;41.30
22333;BME280;11334;36.986;-121.936;2022-08-14T02:44:39;101064.19;;;29.04;41.97
22333;BME280;11334;36.986;-121.936;2022-08-14T02:47:06;101074.13;;;28.64;42.70
22333;BME280;11334;36.986;-121.936;2022-08-14T02:49:33;101063.81;;;28.30;43.41
22333;BME280;11334;36.986;-121.936;2022-08-14T02:52:00;101080.53;;;28.02;44.17
22333;BME280;11334;36.986;-121.936;2022-08-14T02:54:27;101076.50;;;27.84;44.56
22333;BME280;11334;36.986;-121.936;2022-08-14T02:56:56;101075.19;;;27.55;45.49
22333;BME280;11334;36.986;-121.936;2022-08-14T02:59:26;101078.56;;;27.41;45.62
22333;BME280;11334;36.986;-121.936;2022-08-14T03:01:58;101075.06;;;26.98;46.63
22333;BME280;11334;36.986;-121.936;2022-08-14T03:04:25;101090.78;;;26.91;46.99
22333;BME280;11334;36.986;-121.936;2022-08-14T03:06:55;101094.34;;;26.75;47.22
22333;BME280;11334;36.986;-121.936;2022-08-14T03:09:21;101100.88;;;26.58;47.53
22333;BME280;11334;36.986;-121.936;2022-08-14T03:11:47;101101.53;;;26.44;47.64
22333;BME280;11334;36.986;-121.936;2022-08-14T03:14:14;101104.16;;;26.39;47.76
22333;BME280;11334;36.986;-121.936;2022-08-14T03:16:40;101111.75;;;26.21;48.96
22333;BME280;11334;36.986;-121.936;2022-08-14T03:19:07;101106.03;;;26.06;48.83
22333;BME280;11334;36.986;-121.936;2022-08-14T03:21:36;101114.22;;;25.90;49.46
22333;BME280;11334;36.986;-121.936;2022-08-14T03:24:05;101110.97;;;25.76;49.96
22333;BME280;11334;36.986;-121.936;2022-08-14T03:26:39;101119.25;;;25.54;50.96
22333;BME280;11334;36.986;-121.936;2022-08-14T03:29:07;101119.75;;;25.39;51.22
22333;BME280;11334;36.986;-121.936;2022-08-14T03:31:34;101120.88;;;25.27;51.09
22333;BME280;11334;36.986;-121.936;2022-08-14T03:34:01;101117.88;;;25.12;52.32
22333;BME280;11334;36.986;-121.936;2022-08-14T03:36:29;101121.94;;;24.99;52.78
22333;BME280;11334;36.986;-121.936;2022-08-14T03:38:59;101127.00;;;24.84;52.81
22333;BME280;11334;36.986;-121.936;2022-08-14T03:41:26;101122.31;;;24.68;52.95
22333;BME280;11334;36.986;-121.936;2022-08-14T03:43:56;101125.97;;;24.74;53.14
22333;BME280;11334;36.986;-121.936;2022-08-14T03:46:24;101131.88;;;24.48;53.88
22333;BME280;11334;36.986;-121.936;2022-08-14T03:48:53;101133.19;;;24.45;53.77
22333;BME280;11334;36.986;-121.936;2022-08-14T03:51:20;101139.09;;;24.42;53.59
22333;BME280;11334;36.986;-121.936;2022-08-14T03:53:48;101148.38;;;24.24;54.12
22333;BME280;11334;36.986;-121.936;2022-08-14T03:56:16;101147.06;;;24.26;54.04
22333;BME280;11334;36.986;-121.936;2022-08-14T03:58:47;101159.53;;;24.16;54.50
22333;BME280;11334;36.986;-121.936;2022-08-14T04:01:15;101156.56;;;24.06;54.56
22333;BME280;11334;36.986;-121.936;2022-08-14T04:03:45;101164.22;;;23.98;54.76
22333;BME280;11334;36.986;-121.936;2022-08-14T04:06:11;101158.06;;;23.79;55.00
22333;BME280;11334;36.986;-121.936;2022-08-14T04:08:39;101165.47;;;23.84;54.85
22333;BME280;11334;36.986;-121.936;2022-08-14T04:11:06;101164.28;;;23.80;54.21
22333;BME280;11334;36.986;-121.936;2022-08-14T04:13:35;101169.81;;;23.74;54.45
22333;BME280;11334;36.986;-121.936;2022-08-14T04:16:04;101171.34;;;23.70;54.32
22333;BME280;11334;36.986;-121.936;2022-08-14T04:18:31;101168.25;;;23.66;54.29
22333;BME280;11334;36.986;-121.936;2022-08-14T04:20:58;101180.97;;;23.66;54.42
22333;BME280;11334;36.986;-121.936;2022-08-14T04:23:25;101184.59;;;23.60;54.60
22333;BME280;11334;36.986;-121.936;2022-08-14T04:25:51;101187.81;;;23.50;54.84
22333;BME280;11334;36.986;-121.936;2022-08-14T04:28:19;101189.91;;;23.48;54.99
22333;BME280;11334;36.986;-121.936;2022-08-14T04:30:45;101183.53;;;23.43;54.78
22333;BME280;11334;36.986;-121.936;2022-08-14T04:33:12;101184.09;;;23.34;55.30
22333;BME280;11334;36.986;-121.936;2022-08-14T04:35:39;101185.44;;;23.25;55.42
22333;BME280;11334;36.986;-121.936;2022-08-14T04:38:07;101192.13;;;23.05;56.07
22333;BME280;11334;36.986;-121.936;2022-08-14T04:40:52;101195.97;;;22.97;56.02
22333;BME280;11334;36.986;-121.936;2022-08-14T04:43:36;101195.00;;;22.92;55.90
22333;BME280;11334;36.986;-121.936;2022-08-14T04:46:13;101195.31;;;22.84;56.02
22333;BME280;11334;36.986;-121.936;2022-08-14T04:48:40;101195.94;;;22.80;56.19
22333;BME280;11334;36.986;-121.936;2022-08-14T04:51:15;101198.56;;;22.68;56.76
22333;BME280;11334;36.986;-121.936;2022-08-14T04:53:43;101200.72;;;22.60;56.96
22333;BME280;11334;36.986;-121.936;2022-08-14T04:56:11;101207.78;;;22.61;56.67
22333;BME280;11334;36.986;-121.936;2022-08-14T04:58:38;101215.13;;;22.54;56.60
22333;BME280;11334;36.986;-121.936;2022-08-14T05:01:06;101202.47;;;22.48;56.79
22333;BME280;11334;36.986;-121.936;2022-08-14T05:03:35;101212.97;;;22.38;57.05
22333;BME280;11334;36.986;-121.936;2022-08-14T05:06:04;101218.00;;;22.35;57.14
22333;BME280;11334;36.986;-121.936;2022-08-14T05:08:32;101219.19;;;22.15;58.01
22333;BME280;11334;36.986;-121.936;2022-08-14T05:11:01;101223.91;;;21.88;58.87
22333;BME280;11334;36.986;-121.936;2022-08-14T05:13:29;101218.47;;;21.95;58.94
22333;BME280;11334;36.986;-121.936;2022-08-14T05:15:57;101220.19;;;21.89;58.80
22333;BME280;11334;36.986;-121.936;2022-08-14T05:18:30;101227.06;;;21.86;58.78
22333;BME280;11334;36.986;-121.936;2022-08-14T05:20:58;101224.00;;;21.76;59.10
22333;BME280;11334;36.986;-121.936;2022-08-14T05:23:27;101218.44;;;21.64;59.33
22333;BME280;11334;36.986;-121.936;2022-08-14T05:25:56;101224.69;;;21.65;59.23
22333;BME280;11334;36.986;-121.936;2022-08-14T05:28:34;101210.34;;;21.64;58.91
22333;BME280;11334;36.986;-121.936;2022-08-14T05:31:04;101223.66;;;21.59;59.14
22333;BME280;11334;36.986;-121.936;2022-08-14T05:33:32;101224.94;;;21.57;58.89
22333;BME280;11334;36.986;-121.936;2022-08-14T05:36:01;101223.53;;;21.48;59.09
22333;BME280;11334;36.986;-121.936;2022-08-14T05:38:32;101219.84;;;21.43;59.00
22333;BME280;11334;36.986;-121.936;2022-08-14T05:41:01;101218.41;;;21.40;59.07
22333;BME280;11334;36.986;-121.936;2022-08-14T05:43:28;101220.28;;;21.40;59.18
22333;BME280;11334;36.986;-121.936;2022-08-14T05:45:56;101226.47;;;21.34;59.22
22333;BME280;11334;36.986;-121.936;2022-08-14T05:48:23;101221.50;;;21.31;59.32
22333;BME280;11334;36.986;-121.936;2022-08-14T05:50:51;101222.63;;;21.11;60.01
22333;BME280;11334;36.986;-121.936;2022-08-14T05:53:23;101230.72;;;21.11;60.04
22333;BME280;11334;36.986;-121.936;2022-08-14T05:55:50;101239.00;;;21.09;59.78
22333;BME280;11334;36.986;-121.936;2022-08-14T05:58:17;101242.94;;;21.07;59.44
22333;BME280;11334;36.986;-121.936;2022-08-14T06:00:44;101237.13;;;21.10;59.69
22333;BME280;11334;36.986;-121.936;2022-08-14T06:03:13;101234.66;;;21.02;59.53
22333;BME280;11334;36.986;-121.936;2022-08-14T06:05:43;101232.84;;;20.96;60.29
22333;BME280;11334;36.986;-121.936;2022-08-14T06:08:28;101232.88;;;20.83;60.47
22333;BME280;11334;36.986;-121.936;2022-08-14T06:10:56;101225.59;;;20.84;60.17
22333;BME280;11334;36.986;-121.936;2022-08-14T06:13:29;101241.53;;;20.85;60.41
22333;BME280;11334;36.986;-121.936;2022-08-14T06:15:55;101235.56;;;20.83;60.45
22333;BME280;11334;36.986;-121.936;2022-08-14T06:18:21;101240.34;;;20.68;60.82
22333;BME280;11334;36.986;-121.936;2022-08-14T06:20:48;101240.13;;;20.70;60.46
22333;BME280;11334;36.986;-121.936;2022-08-14T06:23:14;101241.16;;;20.62;60.75
22333;BME280;11334;36.986;-121.936;2022-08-14T06:25:41;101238.84;;;20.53;60.75
22333;BME280;11334;36.986;-121.936;2022-08-14T06:28:18;101242.38;;;20.41;61.24
22333;BME280;11334;36.986;-121.936;2022-08-14T06:30:45;101239.91;;;20.33;61.54
22333;BME280;11334;36.986;-121.936;2022-08-14T06:33:12;101243.00;;;20.30;61.40
22333;BME280;11334;36.986;-121.936;2022-08-14T06:35:38;101248.41;;;20.30;61.30
22333;BME280;11334;36.986;-121.936;2022-08-14T06:38:05;101246.53;;;20.18;61.77
22333;BME280;11334;36.986;-121.936;2022-08-14T06:40:34;101248.19;;;20.12;61.90
22333;BME280;11334;36.986;-121.936;2022-08-14T06:43:06;101245.28;;;20.07;61.79
22333;BME280;11334;36.986;-121.936;2022-08-14T06:45:39;101243.00;;;20.04;61.94
22333;BME280;11334;36.986;-121.936;2022-08-14T06:48:20;101240.50;;;20.03;62.20
22333;BME280;11334;36.986;-121.936;2022-08-14T06:50:49;101240.28;;;19.98;62.45
22333;BME280;11334;36.986;-121.936;2022-08-14T06:53:16;101242.16;;;19.97;62.07
22333;BME280;11334;36.986;-121.936;2022-08-14T06:55:47;101238.44;;;19.92;61.87
22333;BME280;11334;36.986;-121.936;2022-08-14T06:58:15;101240.69;;;19.89;62.08
22333;BME280;11334;36.986;-121.936;2022-08-14T07:00:42;101240.91;;;19.87;62.13
22333;BME280;11334;36.986;-121.936;2022-08-14T07:03:28;101246.88;;;19.83;62.05
22333;BME280;11334;36.986;-121.936;2022-08-14T07:06:13;101241.50;;;19.83;61.84
22333;BME280;11334;36.986;-121.936;2022-08-14T07:08:40;101236.28;;;19.75;62.65
22333;BME280;11334;36.986;-121.936;2022-08-14T07:11:09;101241.84;;;19.73;62.76
22333;BME280;11334;36.986;-121.936;2022-08-14T07:13:35;101235.84;;;19.65;62.79
22333;BME280;11334;36.986;-121.936;2022-08-14T07:16:02;101249.47;;;19.57;62.89
22333;BME280;11334;36.986;-121.936;2022-08-14T07:18:30;101252.53;;;19.48;63.15
22333;BME280;11334;36.986;-121.936;2022-08-14T07:20:59;101241.97;;;19.40;63.45
22333;BME280;11334;36.986;-121.936;2022-08-14T07:23:26;101247.94;;;19.42;63.45
22333;BME280;11334;36.986;-121.936;2022-08-14T07:25:57;101245.03;;;19.37;63.88
22333;BME280;11334;36.986;-121.936;2022-08-14T07:28:24;101252.47;;;19.29;64.10
22333;BME280;11334;36.986;-121.936;2022-08-14T07:30:53;101254.50;;;19.20;64.40
22333;BME280;11334;36.986;-121.936;2022-08-14T07:33:24;101247.44;;;19.13;64.56
22333;BME280;11334;36.986;-121.936;2022-08-14T07:35:52;101251.75;;;19.14;64.40
22333;BME280;11334;36.986;-121.936;2022-08-14T07:38:20;101244.13;;;19.17;63.98
22333;BME280;11334;36.986;-121.936;2022-08-14T07:40:50;101238.31;;;19.14;63.83
22333;BME280;11334;36.986;-121.936;2022-08-14T07:43:17;101234.81;;;19.13;63.70
22333;BME280;11334;36.986;-121.936;2022-08-14T07:45:43;101234.78;;;19.07;64.20
22333;BME280;11334;36.986;-121.936;2022-08-14T07:48:10;101231.66;;;19.03;64.25
22333;BME280;11334;36.986;-121.936;2022-08-14T07:50:36;101233.34;;;19.11;63.81
22333;BME280;11334;36.986;-121.936;2022-08-14T07:53:04;101227.53;;;19.01;64.33
22333;BME280;11334;36.986;-121.936;2022-08-14T07:55:34;101235.56;;;19.01;63.91
22333;BME280;11334;36.986;-121.936;2022-08-14T07:58:01;101230.63;;;18.98;64.02
22333;BME280;11334;36.986;-121.936;2022-08-14T08:00:27;101216.78;;;19.01;64.37
22333;BME280;11334;36.986;-121.936;2022-08-14T08:02:55;101222.34;;;18.99;64.20
22333;BME280;11334;36.986;-121.936;2022-08-14T08:05:23;101226.06;;;18.99;64.36
22333;BME280;11334;36.986;-121.936;2022-08-14T08:07:51;101224.91;;;18.87;64.76
22333;BME280;11334;36.986;-121.936;2022-08-14T08:10:20;101220.63;;;18.92;64.35
22333;BME280;11334;36.986;-121.936;2022-08-14T08:13:03;101219.56;;;18.87;64.05
22333;BME280;11334;36.986;-121.936;2022-08-14T08:15:33;101214.53;;;18.77;64.51
22333;BME280;11334;36.986;-121.936;2022-08-14T08:18:02;101217.97;;;18.65;64.94
22333;BME280;11334;36.986;-121.936;2022-08-14T08:20:31;101213.78;;;18.56;65.10
22333;BME280;11334;36.986;-121.936;2022-08-14T08:22:58;101208.59;;;18.55;65.20
22333;BME280;11334;36.986;-121.936;2022-08-14T08:25:27;101211.28;;;18.55;65.17
22333;BME280;11334;36.986;-121.936;2022-08-14T08:30:38;101211.50;;;18.53;64.65
22333;BME280;11334;36.986;-121.936;2022-08-14T08:33:06;101210.88;;;18.51;64.62
22333;BME280;11334;36.986;-121.936;2022-08-14T08:35:35;101211.00;;;18.43;64.97
22333;BME280;11334;36.986;-121.936;2022-08-14T08:38:06;101210.16;;;18.43;65.09
22333;BME280;11334;36.986;-121.936;2022-08-14T08:40:42;101209.56;;;18.41;64.89
22333;BME280;11334;36.986;-121.936;2022-08-14T08:43:18;101210.97;;;18.37;65.35
22333;BME280;11334;36.986;-121.936;2022-08-14T08:45:55;101208.03;;;18.32;65.79
22333;BME280;11334;36.986;-121.936;2022-08-14T08:48:23;101211.53;;;18.33;65.60
22333;BME280;11334;36.986;-121.936;2022-08-14T08:50:54;101207.59;;;18.29;65.68
22333;BME280;11334;36.986;-121.936;2022-08-14T08:53:21;101207.59;;;18.29;64.98
22333;BME280;11334;36.986;-121.936;2022-08-14T08:55:47;101201.34;;;18.22;65.06
22333;BME280;11334;36.986;-121.936;2022-08-14T08:58:18;101206.63;;;18.15;66.05
22333;BME280;11334;36.986;-121.936;2022-08-14T09:00:51;101207.03;;;18.12;66.03
22333;BME280;11334;36.986;-121.936;2022-08-14T09:03:21;101203.47;;;18.05;66.28
22333;BME280;11334;36.986;-121.936;2022-08-14T09:06:02;101201.00;;;18.04;66.26
22333;BME280;11334;36.986;-121.936;2022-08-14T09:08:32;101204.94;;;18.08;66.23
22333;BME280;11334;36.986;-121.936;2022-08-14T09:11:08;101203.69;;;18.04;66.25
22333;BME280;11334;36.986;-121.936;2022-08-14T09:13:40;101192.09;;;18.03;66.01
22333;BME280;11334;36.986;-121.936;2022-08-14T09:16:06;101194.50;;;17.99;65.98
22333;BME280;11334;36.986;-121.936;2022-08-14T09:18:32;101183.88;;;17.84;66.34
22333;BME280;11334;36.986;-121.936;2022-08-14T09:20:59;101199.47;;;17.81;66.61
22333;BME280;11334;36.986;-121.936;2022-08-14T09:23:25;101196.81;;;17.81;66.50
22333;BME280;11334;36.986;-121.936;2022-08-14T09:25:51;101188.31;;;17.77;66.40
22333;BME280;11334;36.986;-121.936;2022-08-14T09:28:19;101196.03;;;17.66;66.72
22333;BME280;11334;36.986;-121.936;2022-08-14T09:30:51;101201.91;;;17.76;66.27
22333;BME280;11334;36.986;-121.936;2022-08-14T09:37:06;101195.06;;;17.73;66.06
22333;BME280;11334;36.986;-121.936;2022-08-14T09:45:20;101191.44;;;17.60;66.50
22333;BME280;11334;36.986;-121.936;2022-08-14T09:47:53;101186.84;;;17.54;66.17
22333;BME280;11334;36.986;-121.936;2022-08-14T09:50:22;101179.66;;;17.55;66.28
22333;BME280;11334;36.986;-121.936;2022-08-14T09:52:51;101181.13;;;17.57;66.00
22333;BME280;11334;36.986;-121.936;2022-08-14T09:55:19;101183.78;;;17.57;66.21
22333;BME280;11334;36.986;-121.936;2022-08-14T09:57:46;101187.22;;;17.51;66.61
22333;BME280;11334;36.986;-121.936;2022-08-14T10:00:13;101189.53;;;17.54;66.42
22333;BME280;11334;36.986;-121.936;2022-08-14T10:02:52;101180.47;;;17.55;66.54
22333;BME280;11334;36.986;-121.936;2022-08-14T10:05:32;101177.59;;;17.57;66.44
22333;BME280;11334;36.986;-121.936;2022-08-14T10:08:01;101184.44;;;17.59;66.36
22333;BME280;11334;36.986;-121.936;2022-08-14T10:10:39;101176.75;;;17.56;66.82
22333;BME280;11334;36.986;-121.936;2022-08-14T10:13:07;101184.78;;;17.56;66.63
22333;BME280;11334;36.986;-121.936;2022-08-14T10:15:45;101181.28;;;17.56;66.86
22333;BME280;11334;36.986;-121.936;2022-08-14T10:18:15;101177.97;;;17.54;66.98
22333;BME280;11334;36.986;-121.936;2022-08-14T10:23:16;101176.22;;;17.46;66.97
22333;BME280;11334;36.986;-121.936;2022-08-14T10:25:48;101184.47;;;17.45;66.57
22333;BME280;11334;36.986;-121.936;2022-08-14T10:28:20;101179.13;;;17.45;66.80
22333;BME280;11334;36.986;-121.936;2022-08-14T10:30:48;101177.28;;;17.45;66.90
22333;BME280;11334;36.986;-121.936;2022-08-14T10:33:29;101180.78;;;17.46;66.69
22333;BME280;11334;36.986;-121.936;2022-08-14T10:35:57;101185.88;;;17.41;66.95
22333;BME280;11334;36.986;-121.936;2022-08-14T10:38:32;101182.50;;;17.33;67.55
22333;BME280;11334;36.986;-121.936;2022-08-14T10:41:15;101177.78;;;17.35;67.43
22333;BME280;11334;36.986;-121.936;2022-08-14T10:43:43;101174.06;;;17.36;67.44
22333;BME280;11334;36.986;-121.936;2022-08-14T10:46:17;101175.09;;;17.35;67.45
22333;BME280;11334;36.986;-121.936;2022-08-14T10:49:04;101186.81;;;17.34;67.85
22333;BME280;11334;36.986;-121.936;2022-08-14T10:51:32;101177.59;;;17.22;68.89
22333;BME280;11334;36.986;-121.936;2022-08-14T10:54:06;101177.25;;;17.25;69.40
22333;BME280;11334;36.986;-121.936;2022-08-14T10:56:33;101166.97;;;17.28;69.52
22333;BME280;11334;36.986;-121.936;2022-08-14T10:59:02;101173.94;;;17.23;69.50
22333;BME280;11334;36.986;-121.936;2022-08-14T11:01:34;101170.03;;;17.25;69.97
22333;BME280;11334;36.986;-121.936;2022-08-14T11:04:00;101177.13;;;17.33;69.87
22333;BME280;11334;36.986;-121.936;2022-08-14T11:06:27;101175.84;;;17.29;70.08
22333;BME280;11334;36.986;-121.936;2022-08-14T11:08:56;101178.13;;;17.32;70.79
22333;BME280;11334;36.986;-121.936;2022-08-14T11:11:23;101178.13;;;17.32;70.79
22333;BME280;11334;36.986;-121.936;2022-08-14T11:13:55;101174.63;;;17.31;71.26
22333;BME280;11334;36.986;-121.936;2022-08-14T11:16:23;101178.41;;;17.37;71.70
22333;BME280;11334;36.986;-121.936;2022-08-14T11:18:52;101172.94;;;17.44;71.87
22333;BME280;11334;36.986;-121.936;2022-08-14T11:21:20;101181.59;;;17.46;72.26
22333;BME280;11334;36.986;-121.936;2022-08-14T11:23:48;101181.69;;;17.53;72.53
22333;BME280;11334;36.986;-121.936;2022-08-14T11:26:17;101183.59;;;17.59;72.59
22333;BME280;11334;36.986;-121.936;2022-08-14T11:28:46;101177.00;;;17.61;72.57
22333;BME280;11334;36.986;-121.936;2022-08-14T11:31:17;101179.94;;;17.66;72.48
22333;BME280;11334;36.986;-121.936;2022-08-14T11:33:48;101175.50;;;17.73;73.08
22333;BME280;11334;36.986;-121.936;2022-08-14T11:36:14;101178.25;;;17.79;73.45
22333;BME280;11334;36.986;-121.936;2022-08-14T11:38:42;101175.19;;;17.82;73.14
22333;BME280;11334;36.986;-121.936;2022-08-14T11:41:13;101166.34;;;17.88;73.50
22333;BME280;11334;36.986;-121.936;2022-08-14T11:43:45;101174.66;;;17.93;73.45
22333;BME280;11334;36.986;-121.936;2022-08-14T11:46:13;101176.94;;;17.96;73.92
22333;BME280;11334;36.986;-121.936;2022-08-14T11:48:51;101171.63;;;18.02;73.70
22333;BME280;11334;36.986;-121.936;2022-08-14T11:51:20;101177.47;;;18.06;73.59
22333;BME280;11334;36.986;-121.936;2022-08-14T11:53:58;101171.75;;;18.09;73.68
22333;BME280;11334;36.986;-121.936;2022-08-14T11:56:33;101175.50;;;18.14;73.44
22333;BME280;11334;36.986;-121.936;2022-08-14T11:59:00;101173.25;;;18.18;72.88
22333;BME280;11334;36.986;-121.936;2022-08-14T12:01:28;101175.72;;;18.19;72.88
22333;BME280;11334;36.986;-121.936;2022-08-14T12:04:08;101171.00;;;18.21;72.59
22333;BME280;11334;36.986;-121.936;2022-08-14T12:06:49;101168.34;;;18.28;72.76
22333;BME280;11334;36.986;-121.936;2022-08-14T12:11:54;101170.47;;;18.32;72.11
22333;BME280;11334;36.986;-121.936;2022-08-14T12:14:20;101170.06;;;18.35;71.98
22333;BME280;11334;36.986;-121.936;2022-08-14T12:17:07;101175.50;;;18.41;72.08
22333;BME280;11334;36.986;-121.936;2022-08-14T12:22:10;101165.19;;;18.45;71.85
22333;BME280;11334;36.986;-121.936;2022-08-14T12:24:37;101173.22;;;18.45;72.18
22333;BME280;11334;36.986;-121.936;2022-08-14T12:27:03;101173.69;;;18.48;71.80
22333;BME280;11334;36.986;-121.936;2022-08-14T12:29:29;101175.16;;;18.51;72.14
22333;BME280;11334;36.986;-121.936;2022-08-14T12:32:00;101179.47;;;18.52;71.89
22333;BME280;11334;36.986;-121.936;2022-08-14T12:34:37;101172.25;;;18.52;71.96
22333;BME280;11334;36.986;-121.936;2022-08-14T12:37:07;101176.41;;;18.55;72.00
22333;BME280;11334;36.986;-121.936;2022-08-14T12:39:35;101181.75;;;18.55;71.90
22333;BME280;11334;36.986;-121.936;2022-08-14T12:42:02;101176.22;;;18.56;72.10
22333;BME280;11334;36.986;-121.936;2022-08-14T12:44:36;101180.34;;;18.59;71.57
22333;BME280;11334;36.986;-121.936;2022-08-14T12:47:10;101176.44;;;18.61;71.92
22333;BME280;11334;36.986;-121.936;2022-08-14T12:49:49;101179.78;;;18.63;71.39
22333;BME280;11334;36.986;-121.936;2022-08-14T12:52:37;101177.09;;;18.63;71.75